createdAt,value
2023-02-06T00:01:37.421Z,103404.91
2023-02-06T00:04:06.028Z,103401.81
2023-02-06T00:06:34.278Z,103389.16
2023-02-06T00:09:05.016Z,103395.63
2023-02-06T00:11:33.517Z,103403.38
2023-02-06T00:14:02.090Z,103398.47
2023-02-06T00:16:32.633Z,103414.44
2023-02-06T00:19:01.264Z,103420.22
2023-02-06T00:21:31.081Z,103419.38
2023-02-06T00:24:01.297Z,103415.13
2023-02-06T00:26:32.191Z,103418.84
2023-02-06T00:29:00.354Z,103419.78
2023-02-06T00:31:28.581Z,103415.41
2023-02-06T00:33:56.874Z,103418.84
2023-02-06T00:36:25.125Z,103414.13
2023-02-06T00:38:53.487Z,103417.44
2023-02-06T00:41:21.802Z,103418.22
2023-02-06T00:43:54.237Z,103424.38
2023-02-06T00:46:25.324Z,103426.41
2023-02-06T00:48:53.568Z,103424.91
2023-02-06T00:51:21.778Z,103431.34
2023-02-06T00:53:51.214Z,103417.09
2023-02-06T00:56:20.786Z,103429.69
2023-02-06T00:58:49.124Z,103424.44
2023-02-06T01:01:18.912Z,103418.09
2023-02-06T01:03:47.138Z,103415.03
2023-02-06T01:06:15.302Z,103411.75
2023-02-06T01:08:43.844Z,103417.13
2023-02-06T01:11:13.537Z,103417.25
2023-02-06T01:13:42.618Z,103423.13
2023-02-06T01:16:11.961Z,103431.94
2023-02-06T01:18:42.505Z,103431.84
2023-02-06T01:21:11.516Z,103426.16
2023-02-06T01:23:40.580Z,103434.03
2023-02-06T01:26:09.830Z,103440.88
2023-02-06T01:28:38.357Z,103438.56
2023-02-06T01:31:11.848Z,103434.44
2023-02-06T01:33:42.189Z,103440.59
2023-02-06T01:36:11.057Z,103423.88
2023-02-06T01:38:39.554Z,103430.66
2023-02-06T01:41:09.079Z,103412.19
2023-02-06T01:43:39.563Z,103402.13
2023-02-06T01:46:09.570Z,103396.63
2023-02-06T01:48:43.013Z,103392.28
2023-02-06T01:51:16.168Z,103393.53
2023-02-06T01:53:47.537Z,103383.72
2023-02-06T01:56:19.430Z,103383.16
2023-02-06T01:58:52.615Z,103379.22
2023-02-06T02:01:21.964Z,103367.47
2023-02-06T02:03:57.219Z,103364.69
2023-02-06T02:06:27.587Z,103367.50
2023-02-06T02:08:58.478Z,103365.19
2023-02-06T02:11:31.326Z,103370.56
2023-02-06T02:14:01.579Z,103367.97
2023-02-06T02:16:46.885Z,103370.09
2023-02-06T02:19:53.372Z,103349.34
2023-02-06T02:22:48.043Z,103355.81
2023-02-06T02:25:42.271Z,103350.72
2023-02-06T02:28:58.526Z,103340.63
2023-02-06T02:31:59.990Z,103337.66
2023-02-06T02:34:46.454Z,103336.81
2023-02-06T02:37:29.657Z,103333.81
2023-02-06T02:40:06.121Z,103331.22
2023-02-06T02:42:44.754Z,103330.72
2023-02-06T02:45:20.139Z,103324.19
2023-02-06T02:47:57.192Z,103328.31
2023-02-06T02:50:29.478Z,103321.63
2023-02-06T02:52:59.263Z,103316.25
2023-02-06T02:55:27.547Z,103325.94
2023-02-06T02:58:06.884Z,103326.22
2023-02-06T03:00:40.994Z,103331.41
2023-02-06T03:03:11.581Z,103325.00
2023-02-06T03:05:46.275Z,103321.41
2023-02-06T03:08:23.116Z,103326.44
2023-02-06T03:11:00.187Z,103324.59
2023-02-06T03:13:35.495Z,103327.75
2023-02-06T03:16:08.918Z,103313.53
2023-02-06T03:18:42.628Z,103309.56
2023-02-06T03:21:16.289Z,103314.75
2023-02-06T03:23:48.417Z,103305.44
2023-02-06T03:26:21.811Z,103290.94
2023-02-06T03:28:54.026Z,103297.59
2023-02-06T03:31:28.229Z,103294.91
2023-02-06T03:34:02.247Z,103302.53
2023-02-06T03:36:31.801Z,103293.28
2023-02-06T03:39:00.176Z,103296.31
2023-02-06T03:41:32.909Z,103302.44
2023-02-06T03:44:04.066Z,103302.38
2023-02-06T03:46:35.200Z,103311.28
2023-02-06T03:49:07.477Z,103324.84
2023-02-06T03:51:42.456Z,103314.91
2023-02-06T03:54:14.096Z,103317.13
2023-02-06T03:56:49.381Z,103321.88
2023-02-06T03:59:17.607Z,103319.59
2023-02-06T04:01:48.800Z,103325.13
2023-02-06T04:04:17.410Z,103322.72
2023-02-06T04:06:47.056Z,103327.38
2023-02-06T04:09:15.210Z,103324.84
2023-02-06T04:11:43.349Z,103319.84
2023-02-06T04:14:11.494Z,103311.59
2023-02-06T04:16:39.853Z,103316.44
2023-02-06T04:19:08.321Z,103323.41
2023-02-06T04:21:36.549Z,103303.09
2023-02-06T04:24:06.571Z,103295.78
2023-02-06T04:26:34.715Z,103295.22
2023-02-06T04:29:02.902Z,103297.56
2023-02-06T04:31:31.122Z,103295.06
2023-02-06T04:33:59.620Z,103295.41
2023-02-06T04:36:27.909Z,103272.72
2023-02-06T04:38:56.049Z,103269.72
2023-02-06T04:41:25.537Z,103262.09
2023-02-06T04:43:53.702Z,103260.31
2023-02-06T04:46:22.123Z,103255.72
2023-02-06T04:48:50.319Z,103266.97
2023-02-06T04:51:18.869Z,103263.03
2023-02-06T04:53:47.140Z,103259.84
2023-02-06T04:56:15.625Z,103254.56
2023-02-06T04:58:45.305Z,103253.00
2023-02-06T05:01:16.729Z,103262.41
2023-02-06T05:03:44.960Z,103264.16
2023-02-06T05:06:13.639Z,103254.78
2023-02-06T05:08:42.072Z,103240.09
2023-02-06T05:11:11.419Z,103255.09
2023-02-06T05:13:39.637Z,103262.59
2023-02-06T05:16:10.410Z,103262.72
2023-02-06T05:18:39.026Z,103263.81
2023-02-06T05:21:07.853Z,103260.00
2023-02-06T05:23:36.134Z,103266.13
2023-02-06T05:26:05.072Z,103265.94
2023-02-06T05:28:34.329Z,103272.19
2023-02-06T05:31:03.813Z,103261.09
2023-02-06T05:33:33.538Z,103258.47
2023-02-06T05:36:06.440Z,103252.97
2023-02-06T05:38:34.953Z,103255.97
2023-02-06T05:41:03.433Z,103254.41
2023-02-06T05:43:31.971Z,103253.81
2023-02-06T05:46:00.306Z,103249.19
2023-02-06T05:48:30.603Z,103254.66
2023-02-06T05:51:00.114Z,103264.28
2023-02-06T05:53:28.302Z,103266.16
2023-02-06T05:55:57.272Z,103258.53
2023-02-06T05:58:25.722Z,103259.63
2023-02-06T06:00:54.304Z,103257.00
2023-02-06T06:03:22.594Z,103261.59
2023-02-06T06:05:50.967Z,103269.00
2023-02-06T06:08:20.582Z,103270.53
2023-02-06T06:10:51.441Z,103271.03
2023-02-06T06:13:19.903Z,103279.19
2023-02-06T06:15:51.316Z,103286.38
2023-02-06T06:18:20.118Z,103284.88
2023-02-06T06:20:49.063Z,103279.22
2023-02-06T06:23:17.508Z,103285.75
2023-02-06T06:25:48.742Z,103289.38
2023-02-06T06:28:17.396Z,103288.81
2023-02-06T06:30:45.639Z,103290.28
2023-02-06T06:33:16.380Z,103287.88
2023-02-06T06:35:44.911Z,103285.19
2023-02-06T06:38:13.066Z,103285.66
2023-02-06T06:40:42.224Z,103291.91
2023-02-06T06:43:11.713Z,103291.19
2023-02-06T06:45:39.992Z,103292.72
2023-02-06T06:48:08.212Z,103284.69
2023-02-06T06:50:36.472Z,103299.16
2023-02-06T06:53:04.707Z,103288.19
2023-02-06T06:55:32.913Z,103279.78
2023-02-06T06:58:01.076Z,103273.88
2023-02-06T07:00:30.729Z,103278.94
2023-02-06T07:02:58.984Z,103278.91
2023-02-06T07:05:27.197Z,103291.75
2023-02-06T07:07:55.372Z,103290.09
2023-02-06T07:10:23.588Z,103297.81
2023-02-06T07:12:53.483Z,103301.81
2023-02-06T07:15:21.786Z,103295.25
2023-02-06T07:17:51.319Z,103301.28
2023-02-06T07:20:19.854Z,103298.06
2023-02-06T07:22:50.233Z,103284.28
2023-02-06T07:25:20.340Z,103295.31
2023-02-06T07:27:48.802Z,103292.22
2023-02-06T07:30:17.140Z,103287.03
2023-02-06T07:32:45.495Z,103286.41
2023-02-06T07:35:15.838Z,103278.25
2023-02-06T07:37:44.018Z,103286.00
2023-02-06T07:40:13.533Z,103275.47
2023-02-06T07:42:41.660Z,103283.31
2023-02-06T07:45:18.142Z,103270.38
2023-02-06T07:47:46.343Z,103277.34
2023-02-06T07:50:17.111Z,103283.09
2023-02-06T07:52:45.268Z,103284.03
2023-02-06T07:55:13.738Z,103291.06
2023-02-06T07:57:42.547Z,103295.69
2023-02-06T08:00:11.933Z,103307.97
2023-02-06T08:02:43.135Z,103297.63
2023-02-06T08:05:11.343Z,103302.53
2023-02-06T08:07:40.838Z,103288.78
2023-02-06T08:10:09.780Z,103297.63
2023-02-06T08:12:37.919Z,103276.63
2023-02-06T08:15:06.650Z,103278.56
2023-02-06T08:17:35.167Z,103274.94
2023-02-06T08:20:03.344Z,103283.25
2023-02-06T08:22:31.512Z,103276.03
2023-02-06T08:25:01.010Z,103274.56
2023-02-06T08:27:29.510Z,103282.09
2023-02-06T08:29:59.357Z,103275.38
2023-02-06T08:32:27.584Z,103292.59
2023-02-06T08:34:55.835Z,103284.06
2023-02-06T08:37:24.363Z,103278.63
2023-02-06T08:39:52.720Z,103286.13
2023-02-06T08:42:22.535Z,103282.84
2023-02-06T08:44:52.318Z,103283.72
2023-02-06T08:47:21.088Z,103284.50
2023-02-06T08:49:50.521Z,103281.84
2023-02-06T08:52:18.916Z,103289.97
2023-02-06T08:54:47.092Z,103285.47
2023-02-06T08:57:15.249Z,103293.34
2023-02-06T08:59:44.648Z,103291.88
2023-02-06T09:02:12.764Z,103293.75
2023-02-06T09:04:42.635Z,103299.75
2023-02-06T09:07:10.830Z,103301.34
2023-02-06T09:09:39.110Z,103314.91
2023-02-06T09:12:07.503Z,103322.63
2023-02-06T09:14:35.774Z,103335.72
2023-02-06T09:17:05.294Z,103340.66
2023-02-06T09:19:33.562Z,103344.25
2023-02-06T09:22:01.687Z,103353.22
2023-02-06T09:24:32.174Z,103352.34
2023-02-06T09:27:01.104Z,103357.91
2023-02-06T09:29:32.261Z,103345.38
2023-02-06T09:32:01.425Z,103343.75
2023-02-06T09:34:31.131Z,103349.88
2023-02-06T09:37:02.330Z,103361.25
2023-02-06T09:39:31.300Z,103353.13
2023-02-06T09:42:06.310Z,103369.56
2023-02-06T09:44:37.881Z,103376.78
2023-02-06T09:47:19.543Z,103363.75
2023-02-06T09:49:52.331Z,103366.88
2023-02-06T09:52:33.580Z,103364.50
2023-02-06T09:55:10.903Z,103371.88
2023-02-06T09:57:46.199Z,103368.47
2023-02-06T10:00:31.864Z,103375.25
2023-02-06T10:03:17.160Z,103391.09
2023-02-06T10:05:57.645Z,103390.09
2023-02-06T10:08:33.205Z,103396.38
2023-02-06T10:11:08.677Z,103400.28
2023-02-06T10:13:44.026Z,103395.31
2023-02-06T10:16:29.048Z,103398.03
2023-02-06T10:19:02.388Z,103392.72
2023-02-06T10:21:37.928Z,103405.94
2023-02-06T10:24:16.042Z,103406.28
2023-02-06T10:26:44.302Z,103394.59
2023-02-06T10:29:17.531Z,103402.94
2023-02-06T10:31:56.529Z,103406.84
2023-02-06T10:34:45.447Z,103394.09
2023-02-06T10:37:29.547Z,103382.78
2023-02-06T10:40:13.889Z,103376.16
2023-02-06T10:42:51.167Z,103364.41
2023-02-06T10:45:35.473Z,103348.28
2023-02-06T10:48:11.664Z,103350.97
2023-02-06T10:50:44.359Z,103344.28
2023-02-06T10:53:18.968Z,103346.34
2023-02-06T10:55:52.389Z,103348.78
2023-02-06T10:58:24.866Z,103346.84
2023-02-06T11:00:54.405Z,103343.13
2023-02-06T11:03:27.517Z,103340.41
2023-02-06T11:05:56.496Z,103342.81
2023-02-06T11:08:29.584Z,103361.44
2023-02-06T11:10:57.887Z,103364.00
2023-02-06T11:13:28.891Z,103369.50
2023-02-06T11:16:03.506Z,103369.97
2023-02-06T11:18:35.688Z,103374.53
2023-02-06T11:21:04.638Z,103360.16
2023-02-06T11:23:35.023Z,103366.78
2023-02-06T11:26:13.937Z,103364.84
2023-02-06T11:28:52.376Z,103354.84
2023-02-06T11:31:22.365Z,103364.63
2023-02-06T11:33:53.474Z,103365.03
2023-02-06T11:36:26.880Z,103365.16
2023-02-06T11:38:59.992Z,103365.69
2023-02-06T11:41:29.407Z,103373.44
2023-02-06T11:44:02.707Z,103373.09
2023-02-06T11:46:32.764Z,103380.00
2023-02-06T11:49:09.220Z,103387.94
2023-02-06T11:51:51.531Z,103395.47
2023-02-06T11:54:23.749Z,103391.47
2023-02-06T11:57:04.256Z,103375.28
2023-02-06T11:59:34.892Z,103374.28
2023-02-06T12:02:22.334Z,103368.13
2023-02-06T12:04:51.212Z,103354.63
2023-02-06T12:07:25.679Z,103363.22
2023-02-06T12:09:55.169Z,103355.50
2023-02-06T12:12:27.555Z,103358.63
2023-02-06T12:14:59.528Z,103363.97
2023-02-06T12:17:36.781Z,103361.31
2023-02-06T12:20:08.993Z,103365.16
2023-02-06T12:22:41.310Z,103369.13
2023-02-06T12:25:25.264Z,103362.41
2023-02-06T12:27:56.466Z,103355.31
2023-02-06T12:30:32.804Z,103351.16
2023-02-06T12:33:07.797Z,103361.50
2023-02-06T12:35:43.923Z,103357.84
2023-02-06T12:38:20.383Z,103352.59
2023-02-06T12:41:01.354Z,103359.22
2023-02-06T12:43:33.768Z,103365.66
2023-02-06T12:46:08.671Z,103355.03
2023-02-06T12:48:42.234Z,103358.66
2023-02-06T12:51:18.952Z,103361.25
2023-02-06T12:53:51.340Z,103368.53
2023-02-06T12:56:28.862Z,103369.41
2023-02-06T12:59:15.579Z,103363.25
2023-02-06T13:01:53.845Z,103364.94
2023-02-06T13:04:26.261Z,103367.38
2023-02-06T13:06:57.466Z,103377.66
2023-02-06T13:09:29.009Z,103386.41
2023-02-06T13:12:12.930Z,103383.88
2023-02-06T13:14:48.164Z,103385.91
2023-02-06T13:17:20.497Z,103385.84
2023-02-06T13:20:04.414Z,103376.34
2023-02-06T13:22:44.800Z,103387.56
2023-02-06T13:25:55.618Z,103386.16
2023-02-06T13:28:59.351Z,103387.91
2023-02-06T13:31:31.364Z,103385.78
2023-02-06T13:34:03.430Z,103387.72
2023-02-06T13:36:49.447Z,103392.28
2023-02-06T13:39:31.411Z,103392.00
2023-02-06T13:42:23.563Z,103389.59
2023-02-06T13:44:53.802Z,103391.25
2023-02-06T13:47:50.617Z,103384.28
2023-02-06T13:50:32.721Z,103385.53
2023-02-06T13:53:22.079Z,103388.88
2023-02-06T13:56:05.986Z,103394.16
2023-02-06T13:58:47.567Z,103386.41
2023-02-06T14:01:21.225Z,103393.72
2023-02-06T14:03:51.461Z,103395.53
2023-02-06T14:06:45.620Z,103400.75
2023-02-06T14:09:53.348Z,103401.44
2023-02-06T14:12:39.298Z,103403.41
2023-02-06T14:15:26.464Z,103406.13
2023-02-06T14:18:26.992Z,103416.16
2023-02-06T14:21:04.974Z,103413.13
2023-02-06T14:23:46.289Z,103429.56
2023-02-06T14:26:29.790Z,103428.88
2023-02-06T14:29:04.537Z,103431.31
2023-02-06T14:31:52.441Z,103444.44
2023-02-06T14:34:31.216Z,103459.00
2023-02-06T14:37:15.210Z,103457.00
2023-02-06T14:39:45.755Z,103462.28
2023-02-06T14:42:19.530Z,103476.47
2023-02-06T14:44:53.903Z,103472.56
2023-02-06T14:47:25.526Z,103478.97
2023-02-06T14:49:57.499Z,103482.75
2023-02-06T14:52:30.229Z,103480.63
2023-02-06T14:54:58.547Z,103486.97
2023-02-06T14:57:28.642Z,103496.72
2023-02-06T14:59:59.927Z,103501.06
2023-02-06T15:02:31.493Z,103495.72
2023-02-06T15:05:03.363Z,103505.31
2023-02-06T15:07:34.130Z,103494.63
2023-02-06T15:10:08.210Z,103490.31
2023-02-06T15:12:52.309Z,103506.06
2023-02-06T15:15:23.103Z,103499.13
2023-02-06T15:18:02.689Z,103524.53
2023-02-06T15:20:37.140Z,103511.50
2023-02-06T15:23:17.673Z,103510.41
2023-02-06T15:25:59.729Z,103513.63
2023-02-06T15:28:30.061Z,103520.00
2023-02-06T15:31:00.923Z,103509.34
2023-02-06T15:33:31.160Z,103515.31
2023-02-06T15:36:03.266Z,103518.97
2023-02-06T15:38:34.036Z,103524.16
2023-02-06T15:41:05.867Z,103531.56
2023-02-06T15:43:34.786Z,103534.91
2023-02-06T15:46:05.401Z,103535.38
2023-02-06T15:48:37.237Z,103543.59
2023-02-06T15:51:19.833Z,103546.66
2023-02-06T15:53:49.557Z,103543.78
2023-02-06T15:56:23.881Z,103537.03
2023-02-06T15:58:58.658Z,103543.06
2023-02-06T16:01:28.698Z,103536.56
2023-02-06T16:04:02.023Z,103542.31
2023-02-06T16:06:31.824Z,103543.97
2023-02-06T16:09:02.902Z,103548.16
2023-02-06T16:11:50.691Z,103548.50
2023-02-06T16:14:27.248Z,103545.66
2023-02-06T16:17:01.106Z,103553.91
2023-02-06T16:19:41.549Z,103553.50
2023-02-06T16:22:26.463Z,103558.50
2023-02-06T16:25:12.612Z,103559.09
2023-02-06T16:27:44.943Z,103555.63
2023-02-06T16:30:24.439Z,103551.94
2023-02-06T16:32:55.315Z,103552.81
2023-02-06T16:35:25.251Z,103555.97
2023-02-06T16:37:55.523Z,103553.69
2023-02-06T16:40:26.254Z,103570.94
2023-02-06T16:42:54.684Z,103577.00
2023-02-06T16:45:25.532Z,103565.53
2023-02-06T16:47:54.547Z,103578.28
2023-02-06T16:50:23.482Z,103574.03
2023-02-06T16:52:54.609Z,103575.09
2023-02-06T16:55:25.993Z,103581.88
2023-02-06T16:57:57.092Z,103582.47
2023-02-06T17:00:29.438Z,103588.00
2023-02-06T17:02:58.976Z,103587.41
2023-02-06T17:05:29.378Z,103591.69
2023-02-06T17:07:57.705Z,103603.81
2023-02-06T17:10:27.534Z,103601.16
2023-02-06T17:12:55.700Z,103605.16
2023-02-06T17:15:23.867Z,103594.75
2023-02-06T17:17:54.461Z,103600.69
2023-02-06T17:20:34.535Z,103609.16
2023-02-06T17:23:02.788Z,103609.78
2023-02-06T17:25:32.523Z,103599.72
2023-02-06T17:28:01.223Z,103593.19
2023-02-06T17:30:29.475Z,103591.31
2023-02-06T17:32:57.663Z,103603.09
2023-02-06T17:35:26.760Z,103618.69
2023-02-06T17:37:55.595Z,103618.53
2023-02-06T17:40:26.505Z,103622.88
2023-02-06T17:42:57.285Z,103615.38
2023-02-06T17:45:25.996Z,103617.84
2023-02-06T17:47:54.695Z,103624.91
2023-02-06T17:50:25.706Z,103616.38
2023-02-06T17:52:55.784Z,103622.66
2023-02-06T17:55:25.066Z,103612.00
2023-02-06T17:57:54.373Z,103623.44
2023-02-06T18:00:25.597Z,103626.44
2023-02-06T18:02:55.487Z,103613.56
2023-02-06T18:05:24.208Z,103607.09
2023-02-06T18:07:52.559Z,103615.69
2023-02-06T18:10:23.087Z,103619.09
2023-02-06T18:12:51.677Z,103611.03
2023-02-06T18:15:20.137Z,103623.59
2023-02-06T18:17:49.886Z,103641.84
2023-02-06T18:20:18.528Z,103639.44
2023-02-06T18:22:47.356Z,103630.91
2023-02-06T18:25:16.503Z,103635.66
2023-02-06T18:27:45.970Z,103640.31
2023-02-06T18:30:15.727Z,103634.78
2023-02-06T18:32:44.349Z,103639.41
2023-02-06T18:35:16.393Z,103653.91
2023-02-06T18:37:44.933Z,103652.84
2023-02-06T18:40:13.979Z,103641.47
2023-02-06T18:42:54.904Z,103646.06
2023-02-06T18:45:25.501Z,103653.81
2023-02-06T18:47:53.962Z,103639.50
2023-02-06T18:50:24.066Z,103633.22
2023-02-06T18:52:52.894Z,103633.34
2023-02-06T18:55:21.451Z,103635.38
2023-02-06T18:57:49.997Z,103639.16
2023-02-06T19:00:20.569Z,103649.59
2023-02-06T19:02:49.470Z,103634.19
2023-02-06T19:05:18.229Z,103638.84
2023-02-06T19:07:51.519Z,103646.28
2023-02-06T19:10:25.789Z,103639.50
2023-02-06T19:12:54.009Z,103652.75
2023-02-06T19:15:22.459Z,103654.03
2023-02-06T19:17:50.690Z,103657.03
2023-02-06T19:20:19.497Z,103655.69
2023-02-06T19:22:48.056Z,103657.38
2023-02-06T19:25:19.195Z,103644.88
2023-02-06T19:27:47.531Z,103666.09
2023-02-06T19:30:16.310Z,103666.28
2023-02-06T19:32:44.696Z,103656.63
2023-02-06T19:35:13.054Z,103663.53
2023-02-06T19:37:41.345Z,103662.31
2023-02-06T19:40:10.528Z,103664.63
2023-02-06T19:42:41.310Z,103676.09
2023-02-06T19:45:09.864Z,103679.31
2023-02-06T19:47:38.435Z,103685.31
2023-02-06T19:50:07.429Z,103680.31
2023-02-06T19:52:35.615Z,103675.56
2023-02-06T19:55:04.338Z,103676.06
2023-02-06T19:57:32.622Z,103671.00
2023-02-06T20:00:02.213Z,103678.03
2023-02-06T20:02:33.492Z,103676.41
2023-02-06T20:05:02.812Z,103683.88
2023-02-06T20:07:31.855Z,103682.91
2023-02-06T20:10:00.106Z,103688.72
2023-02-06T20:12:28.489Z,103682.91
2023-02-06T20:14:56.663Z,103678.53
2023-02-06T20:17:26.970Z,103678.66
2023-02-06T20:19:55.220Z,103682.13
2023-02-06T20:22:23.597Z,103681.63
2023-02-06T20:24:51.759Z,103695.56
2023-02-06T20:27:19.971Z,103690.31
2023-02-06T20:29:48.257Z,103690.84
2023-02-06T20:32:19.423Z,103691.09
2023-02-06T20:34:49.038Z,103695.38
2023-02-06T20:37:17.748Z,103703.97
2023-02-06T20:39:49.183Z,103700.19
2023-02-06T20:42:19.501Z,103708.47
2023-02-06T20:44:49.467Z,103714.34
2023-02-06T20:47:17.835Z,103706.03
2023-02-06T20:49:46.228Z,103697.25
2023-02-06T20:52:15.812Z,103700.84
2023-02-06T20:54:44.600Z,103707.19
2023-02-06T20:57:13.092Z,103710.88
2023-02-06T20:59:41.728Z,103708.78
2023-02-06T21:02:10.929Z,103708.50
2023-02-06T21:04:39.214Z,103703.59
2023-02-06T21:07:07.489Z,103706.31
2023-02-06T21:09:37.183Z,103706.47
2023-02-06T21:12:05.910Z,103711.03
2023-02-06T21:14:34.183Z,103716.78
2023-02-06T21:17:02.642Z,103709.59
2023-02-06T21:19:30.823Z,103706.94
2023-02-06T21:21:59.009Z,103710.31
2023-02-06T21:24:28.148Z,103723.91
2023-02-06T21:26:57.757Z,103724.53
2023-02-06T21:29:26.356Z,103724.28
2023-02-06T21:32:11.010Z,103723.19
2023-02-06T21:34:40.855Z,103724.78
2023-02-06T21:37:09.479Z,103722.78
2023-02-06T21:39:38.857Z,103716.63
2023-02-06T21:42:09.518Z,103719.94
2023-02-06T21:44:38.722Z,103718.91
2023-02-06T21:47:09.756Z,103716.25
2023-02-06T21:49:38.356Z,103721.44
2023-02-06T21:52:06.632Z,103720.25
2023-02-06T21:54:34.892Z,103721.53
2023-02-06T21:57:03.069Z,103718.59
2023-02-06T21:59:34.025Z,103722.50
2023-02-06T22:02:02.860Z,103722.50
2023-02-06T22:04:31.263Z,103727.78
2023-02-06T22:06:59.882Z,103723.59
2023-02-06T22:09:28.049Z,103718.13
2023-02-06T22:11:56.734Z,103722.41
2023-02-06T22:14:24.909Z,103727.84
2023-02-06T22:16:54.480Z,103731.31
2023-02-06T22:19:22.669Z,103718.59
2023-02-06T22:21:50.959Z,103724.66
2023-02-06T22:24:19.218Z,103718.06
2023-02-06T22:26:47.571Z,103723.22
2023-02-06T22:29:17.851Z,103726.25
2023-02-06T22:31:48.518Z,103724.47
2023-02-06T22:34:20.596Z,103728.03
2023-02-06T22:36:51.007Z,103725.19
2023-02-06T22:39:19.616Z,103722.88
2023-02-06T22:41:48.120Z,103733.88
2023-02-06T22:44:17.324Z,103728.19
2023-02-06T22:46:47.276Z,103739.94
2023-02-06T22:49:15.821Z,103731.22
2023-02-06T22:51:46.472Z,103738.50
2023-02-06T22:54:15.459Z,103733.00
2023-02-06T22:56:44.185Z,103738.34
2023-02-06T22:59:14.988Z,103743.50
2023-02-06T23:01:45.541Z,103739.94
2023-02-06T23:04:16.618Z,103731.59
2023-02-06T23:06:47.388Z,103726.59
2023-02-06T23:09:18.242Z,103735.38
2023-02-06T23:11:46.801Z,103730.50
2023-02-06T23:14:16.439Z,103744.00
2023-02-06T23:16:45.617Z,103739.56
2023-02-06T23:19:15.692Z,103745.28
2023-02-06T23:21:47.233Z,103737.81
2023-02-06T23:24:17.459Z,103751.47
2023-02-06T23:26:48.437Z,103744.00
2023-02-06T23:29:18.680Z,103742.75
2023-02-06T23:31:48.199Z,103733.84
2023-02-06T23:34:17.730Z,103744.88
2023-02-06T23:36:47.839Z,103735.44
2023-02-06T23:39:16.101Z,103740.94
2023-02-06T23:41:44.334Z,103744.22
2023-02-06T23:44:12.799Z,103750.00
2023-02-06T23:46:41.618Z,103754.84
2023-02-06T23:49:10.269Z,103751.81
2023-02-06T23:51:39.140Z,103759.97
2023-02-06T23:54:09.942Z,103761.94
2023-02-06T23:56:38.404Z,103758.03
2023-02-06T23:59:06.987Z,103754.09
